aviador You're here:

KHDO Decoded Metar

HONDO in TX, USA
Report Time2017-05-29 03:51:00
UTC Time2017-05-29 03:58:30
Flight Rules vfr VFR
Wind130° at 06 kt
W.Decomp.*RWY 13: 5.9 kt HW 0.8 kt LCW
RWY 08: 4.5 kt HW 4.0 kt RCW
RWY 17: 4.0 kt HW 4.5 kt LCW
W.Rank130° ranks 3
Current wind is below 130° avg. (8.4)
Visibility9999 m
Phenomena:Light Rain
Clouds:Scattered 100 Hf
Expected CloudBase > 2,000 ft AGL from Temp-Dew spread
CeilingNone
Temp23°C (ISA +10)
Dew Point18°C (74% RH)
QNH1014 hPa
Density Alt2,310 ft
Elevation925 ft
Report Wrong Elevation
Raw Report
KHDO 290351Z AUTO 13006KT 10SM -RA SCT100 23/18 A2995 RMK AO2 LTG
DSNT S RAB11 SLP126 P0000 T02280178 $=

Extra information for KHDO:More info

Metar Taf Metar & Taf Last 4 Metars F.Rules Stats Wind Profile Meteogram Temp Stats Airport Information Weather charts Add Link Nearby VenuesMetar ALERT Operation Metar Decoded Social comments

AIRNAV info for KHDO